createdAt,value
2022-12-23T00:00:39.743Z,3.67
2022-12-23T00:03:07.015Z,2.35
2022-12-23T00:05:38.667Z,1.50
2022-12-23T00:08:06.587Z,5.63
2022-12-23T00:10:35.069Z,3.30
2022-12-23T00:13:20.158Z,2.90
2022-12-23T00:15:46.816Z,5.28
2022-12-23T00:18:13.370Z,2.33
2022-12-23T00:20:40.018Z,4.80
2022-12-23T00:23:06.743Z,1.55
2022-12-23T00:25:42.120Z,1.85
2022-12-23T00:28:16.374Z,1.10
2022-12-23T00:30:46.796Z,1.13
2022-12-23T00:33:15.495Z,0.82
2022-12-23T00:35:43.514Z,1.02
2022-12-23T00:38:10.185Z,0.93
2022-12-23T00:40:55.559Z,0.80
2022-12-23T00:43:22.502Z,0.80
2022-12-23T00:45:49.244Z,3.10
2022-12-23T00:48:34.543Z,0.90
2022-12-23T00:51:01.171Z,0.82
2022-12-23T00:53:27.789Z,2.70
2022-12-23T00:55:54.386Z,2.25
2022-12-23T00:58:22.174Z,1.00
2022-12-23T01:01:07.647Z,0.82
2022-12-23T01:03:52.742Z,0.77
2022-12-23T01:06:19.407Z,0.73
2022-12-23T01:08:45.954Z,1.58
2022-12-23T01:11:13.163Z,0.95
2022-12-23T01:13:40.306Z,1.10
2022-12-23T01:16:15.033Z,1.85
2022-12-23T01:18:44.131Z,0.90
2022-12-23T01:21:11.192Z,2.38
2022-12-23T01:23:38.249Z,1.05
2022-12-23T01:26:07.583Z,1.00
2022-12-23T01:28:35.037Z,1.70
2022-12-23T01:31:02.866Z,0.70
2022-12-23T01:33:30.771Z,1.00
2022-12-23T01:36:02.456Z,3.03
2022-12-23T01:38:29.907Z,1.85
2022-12-23T01:40:57.064Z,2.13
2022-12-23T01:43:43.824Z,0.80
2022-12-23T01:46:10.457Z,0.70
2022-12-23T01:48:37.987Z,0.70
2022-12-23T01:51:08.290Z,1.00
2022-12-23T01:53:40.634Z,0.77
2022-12-23T01:56:15.135Z,0.75
2022-12-23T01:59:00.776Z,2.85
2022-12-23T02:01:47.646Z,1.25
2022-12-23T02:04:23.306Z,1.13
2022-12-23T02:07:09.420Z,1.00
2022-12-23T02:09:38.804Z,1.25
2022-12-23T02:12:30.381Z,1.80
2022-12-23T02:15:37.627Z,2.58
2022-12-23T02:18:16.400Z,0.85
2022-12-23T02:20:54.927Z,0.68
2022-12-23T02:23:59.166Z,1.77
2022-12-23T02:26:44.322Z,0.70
2022-12-23T02:29:29.620Z,0.57
2022-12-23T02:32:24.043Z,1.48
2022-12-23T02:35:21.030Z,1.10
2022-12-23T02:37:47.490Z,2.47
2022-12-23T02:40:23.195Z,1.00
2022-12-23T02:43:05.202Z,1.30
2022-12-23T02:45:41.802Z,1.45
2022-12-23T02:48:23.848Z,0.70
2022-12-23T02:50:52.759Z,0.68
2022-12-23T02:53:27.085Z,1.23
2022-12-23T02:55:56.054Z,0.85
2022-12-23T02:58:28.302Z,0.88
2022-12-23T03:00:56.259Z,1.25
2022-12-23T03:03:23.977Z,1.33
2022-12-23T03:05:51.527Z,0.82
2022-12-23T03:08:30.075Z,5.05
2022-12-23T03:11:02.973Z,9.82
2022-12-23T03:13:32.523Z,6.03
2022-12-23T03:16:27.625Z,1.85
2022-12-23T03:19:13.254Z,1.75
2022-12-23T03:21:52.004Z,0.73
2022-12-23T03:24:47.959Z,2.15
2022-12-23T03:27:31.340Z,1.00
2022-12-23T03:30:04.565Z,0.80
2022-12-23T03:32:36.866Z,2.63
2022-12-23T03:35:06.912Z,0.80
2022-12-23T03:37:37.870Z,1.65
2022-12-23T03:40:14.615Z,2.28
2022-12-23T03:42:44.981Z,0.95
2022-12-23T03:48:22.846Z,1.73
2022-12-23T03:50:56.239Z,1.17
2022-12-23T03:53:29.633Z,1.05
2022-12-23T03:56:02.058Z,2.55
2022-12-23T03:58:40.302Z,2.30
2022-12-23T04:01:09.991Z,3.13
2022-12-23T04:03:50.903Z,3.75
2022-12-23T04:06:20.694Z,2.45
2022-12-23T04:08:49.331Z,1.52
2022-12-23T04:11:16.079Z,1.25
2022-12-23T04:13:42.765Z,1.90
2022-12-23T04:16:10.075Z,1.30
2022-12-23T04:18:36.812Z,0.95
2022-12-23T04:21:03.592Z,1.38
2022-12-23T04:23:30.180Z,1.25
2022-12-23T04:25:56.867Z,1.27
2022-12-23T04:28:23.479Z,1.45
2022-12-23T04:30:50.115Z,1.05
2022-12-23T04:33:16.710Z,2.33
2022-12-23T04:35:43.391Z,1.83
2022-12-23T04:38:09.911Z,1.98
2022-12-23T04:40:36.526Z,3.95
2022-12-23T04:43:03.067Z,1.20
2022-12-23T04:45:29.634Z,1.27
2022-12-23T04:47:56.277Z,1.70
2022-12-23T04:50:22.823Z,2.50
2022-12-23T04:52:49.433Z,1.38
2022-12-23T04:55:15.988Z,3.38
2022-12-23T04:57:42.614Z,3.58
2022-12-23T05:00:09.763Z,3.65
2022-12-23T05:02:36.460Z,1.20
2022-12-23T05:05:03.574Z,3.58
2022-12-23T05:07:30.136Z,1.33
2022-12-23T05:10:01.675Z,1.15
2022-12-23T05:12:31.717Z,1.00
2022-12-23T05:14:58.273Z,0.88
2022-12-23T05:17:24.864Z,2.83
2022-12-23T05:19:51.528Z,1.48
2022-12-23T05:22:18.173Z,1.48
2022-12-23T05:24:44.838Z,1.48
2022-12-23T05:27:11.399Z,1.08
2022-12-23T05:29:37.961Z,1.08
2022-12-23T05:32:04.897Z,1.15
2022-12-23T05:34:31.520Z,1.42
2022-12-23T05:36:58.117Z,7.03
2022-12-23T05:39:26.561Z,5.05
2022-12-23T05:41:53.208Z,2.47
2022-12-23T05:44:19.755Z,5.80
2022-12-23T05:46:46.385Z,1.90
2022-12-23T05:49:12.962Z,2.70
2022-12-23T05:51:39.538Z,2.10
2022-12-23T05:54:06.119Z,3.35
2022-12-23T05:56:32.632Z,2.28
2022-12-23T05:58:59.283Z,2.33
2022-12-23T06:01:25.919Z,3.63
2022-12-23T06:03:52.736Z,3.65
2022-12-23T06:06:19.577Z,10.38
2022-12-23T06:08:46.141Z,9.95
2022-12-23T06:11:13.226Z,6.25
2022-12-23T06:13:39.875Z,10.15
2022-12-23T06:16:06.764Z,5.88
2022-12-23T06:18:33.369Z,2.33
2022-12-23T06:21:00.014Z,1.95
2022-12-23T06:23:26.709Z,2.38
2022-12-23T06:26:02.181Z,7.57
2022-12-23T06:28:29.455Z,4.15
2022-12-23T06:30:57.123Z,9.25
2022-12-23T06:33:24.871Z,3.67
2022-12-23T06:35:51.585Z,2.10
2022-12-23T06:38:18.144Z,2.50
2022-12-23T06:40:44.676Z,4.25
2022-12-23T06:43:13.456Z,5.50
2022-12-23T06:45:40.825Z,2.03
2022-12-23T06:48:07.730Z,2.00
2022-12-23T06:50:34.420Z,3.72
2022-12-23T06:53:00.998Z,5.60
2022-12-23T06:55:27.561Z,17.98
2022-12-23T06:57:54.161Z,19.33
2022-12-23T07:00:20.944Z,19.15
2022-12-23T07:02:47.787Z,8.57
2022-12-23T07:05:14.530Z,5.55
2022-12-23T07:07:41.152Z,1.90
2022-12-23T07:10:08.391Z,5.85
2022-12-23T07:12:35.054Z,5.55
2022-12-23T07:15:01.652Z,1.63
2022-12-23T07:17:28.444Z,3.10
2022-12-23T07:19:55.070Z,1.30
2022-12-23T07:22:21.692Z,2.88
2022-12-23T07:24:48.367Z,1.30
2022-12-23T07:27:15.057Z,2.75
2022-12-23T07:29:41.805Z,1.80
2022-12-23T07:32:08.524Z,3.95
2022-12-23T07:34:36.121Z,1.95
2022-12-23T07:37:02.683Z,4.43
2022-12-23T07:39:29.335Z,3.28
2022-12-23T07:42:16.535Z,5.82
2022-12-23T07:44:42.478Z,6.03
2022-12-23T07:47:09.065Z,6.47
2022-12-23T07:49:35.753Z,5.88
2022-12-23T07:52:02.396Z,7.75
2022-12-23T07:54:29.012Z,8.40
2022-12-23T07:56:58.089Z,9.65
2022-12-23T07:59:27.699Z,7.10
2022-12-23T08:01:54.507Z,10.50
2022-12-23T08:04:21.366Z,7.55
2022-12-23T08:06:48.030Z,5.57
2022-12-23T08:09:14.655Z,6.15
2022-12-23T08:11:41.198Z,8.32
2022-12-23T08:14:07.774Z,10.18
2022-12-23T08:16:41.302Z,8.60
2022-12-23T08:19:10.099Z,11.32
2022-12-23T08:21:36.724Z,7.15
2022-12-23T08:24:03.380Z,5.88
2022-12-23T08:26:29.994Z,7.20
2022-12-23T08:28:56.855Z,9.63
2022-12-23T08:31:26.650Z,6.97
2022-12-23T08:33:55.771Z,8.60
2022-12-23T08:36:25.802Z,9.10
2022-12-23T08:38:54.075Z,6.53
2022-12-23T08:41:33.578Z,4.80
2022-12-23T08:44:00.446Z,7.63
2022-12-23T08:46:27.472Z,4.38
2022-12-23T08:48:54.511Z,7.28
2022-12-23T08:51:22.869Z,6.70
2022-12-23T08:53:53.519Z,13.30
2022-12-23T08:56:24.885Z,8.68
2022-12-23T08:58:53.764Z,7.38
2022-12-23T09:01:22.739Z,12.02
2022-12-23T09:03:49.931Z,4.93
2022-12-23T09:06:24.750Z,5.78
2022-12-23T09:08:56.100Z,5.00
2022-12-23T09:11:25.751Z,7.70
2022-12-23T09:13:52.316Z,12.75
2022-12-23T09:16:19.077Z,6.85
2022-12-23T09:18:45.761Z,6.82
2022-12-23T09:21:14.958Z,9.55
2022-12-23T09:23:41.963Z,4.88
2022-12-23T09:26:10.493Z,8.55
2022-12-23T09:28:37.515Z,7.50
2022-12-23T09:31:12.175Z,13.30
2022-12-23T09:33:39.362Z,8.95
2022-12-23T09:36:07.152Z,7.82
2022-12-23T09:38:34.121Z,5.03
2022-12-23T09:41:09.552Z,7.30
2022-12-23T09:43:38.969Z,5.93
2022-12-23T09:46:14.516Z,6.95
2022-12-23T09:48:47.694Z,8.55
2022-12-23T09:51:23.559Z,8.82
2022-12-23T09:53:56.300Z,8.38
2022-12-23T09:56:34.331Z,9.75
2022-12-23T09:59:30.221Z,7.47
2022-12-23T10:02:13.191Z,5.93
2022-12-23T10:04:46.359Z,7.85
2022-12-23T10:07:27.724Z,8.02
2022-12-23T10:09:57.334Z,7.97
2022-12-23T10:12:47.179Z,6.38
2022-12-23T10:15:22.279Z,7.43
2022-12-23T10:17:52.083Z,6.60
2022-12-23T10:20:32.625Z,11.95
2022-12-23T10:22:59.913Z,7.20
2022-12-23T10:25:39.210Z,8.98
2022-12-23T10:28:05.930Z,11.88
2022-12-23T10:31:17.326Z,11.82
2022-12-23T10:33:34.627Z,13.18
2022-12-23T10:36:16.629Z,17.40
2022-12-23T10:39:01.467Z,11.13
2022-12-23T10:41:40.928Z,22.67
2022-12-23T10:44:33.713Z,15.85
2022-12-23T10:47:19.119Z,9.13
2022-12-23T10:50:04.480Z,9.15
2022-12-23T10:52:36.591Z,14.45
2022-12-23T10:55:03.309Z,10.50
2022-12-23T10:57:30.325Z,8.30
2022-12-23T10:59:57.554Z,6.63
2022-12-23T11:02:49.821Z,8.88
2022-12-23T11:05:28.180Z,19.15
2022-12-23T11:07:55.336Z,14.55
2022-12-23T11:10:25.837Z,10.57
2022-12-23T11:12:54.133Z,20.42
2022-12-23T11:15:41.363Z,9.95
2022-12-23T11:18:14.179Z,7.40
2022-12-23T11:20:43.566Z,10.52
2022-12-23T11:23:30.964Z,9.45
2022-12-23T11:26:07.601Z,5.40
2022-12-23T11:28:37.720Z,9.30
2022-12-23T11:31:13.347Z,5.90
2022-12-23T11:33:57.886Z,5.13
2022-12-23T11:36:29.560Z,7.47
2022-12-23T11:39:23.848Z,6.18
2022-12-23T11:41:58.535Z,5.00
2022-12-23T11:44:30.944Z,6.63
2022-12-23T11:46:58.135Z,9.48
2022-12-23T11:49:27.571Z,6.15
2022-12-23T11:52:06.422Z,4.03
2022-12-23T11:54:34.317Z,3.65
2022-12-23T11:57:03.997Z,4.15
2022-12-23T11:59:40.763Z,3.03
2022-12-23T12:02:43.412Z,4.28
2022-12-23T12:05:28.406Z,2.50
2022-12-23T12:08:00.150Z,4.85
2022-12-23T12:10:31.709Z,2.45
2022-12-23T12:13:03.159Z,5.13
2022-12-23T12:15:47.593Z,2.17
2022-12-23T12:18:18.882Z,2.72
2022-12-23T12:20:49.075Z,4.32
2022-12-23T12:23:26.531Z,4.07
2022-12-23T12:26:08.234Z,2.97
2022-12-23T12:28:40.076Z,3.15
2022-12-23T12:31:14.625Z,9.57
2022-12-23T12:33:51.071Z,4.68
2022-12-23T12:36:20.810Z,5.18
2022-12-23T12:38:49.949Z,6.45
2022-12-23T12:41:28.225Z,5.38
2022-12-23T12:44:25.109Z,6.13
2022-12-23T12:46:59.226Z,4.85
2022-12-23T12:49:40.129Z,4.65
2022-12-23T12:52:15.476Z,4.97
2022-12-23T12:54:50.955Z,5.75
2022-12-23T12:57:20.632Z,7.90
2022-12-23T12:59:50.301Z,5.20
2022-12-23T13:02:38.912Z,3.05
2022-12-23T13:05:29.756Z,3.63
2022-12-23T13:08:11.988Z,1.50
2022-12-23T13:10:49.263Z,2.00
2022-12-23T13:13:35.630Z,2.05
2022-12-23T13:16:46.055Z,4.65
2022-12-23T13:19:41.948Z,3.63
2022-12-23T13:22:15.617Z,2.05
2022-12-23T13:25:03.653Z,2.97
2022-12-23T13:27:34.396Z,4.72
2022-12-23T13:30:14.880Z,3.03
2022-12-23T13:33:07.978Z,1.70
2022-12-23T13:36:06.917Z,1.10
2022-12-23T13:38:38.004Z,1.45
2022-12-23T13:43:55.510Z,1.75
2022-12-23T13:46:26.101Z,1.08
2022-12-23T13:49:05.303Z,1.92
2022-12-23T13:51:57.878Z,1.45
2022-12-23T13:54:42.753Z,1.10
2022-12-23T13:57:38.670Z,4.45
2022-12-23T14:00:27.761Z,1.83
2022-12-23T14:03:01.102Z,2.28
2022-12-23T14:05:30.914Z,1.75
2022-12-23T14:08:20.423Z,1.83
2022-12-23T14:11:20.374Z,2.58
2022-12-23T14:13:50.088Z,1.52
2022-12-23T14:16:30.765Z,1.98
2022-12-23T14:19:18.764Z,1.10
2022-12-23T14:22:06.643Z,1.63
2022-12-23T14:24:45.520Z,1.42
2022-12-23T14:27:21.167Z,2.38
2022-12-23T14:30:20.527Z,2.28
2022-12-23T14:32:59.180Z,3.80
2022-12-23T14:35:48.275Z,1.73
2022-12-23T14:38:14.965Z,1.45
2022-12-23T14:41:06.335Z,1.20
2022-12-23T14:43:51.303Z,2.50
2022-12-23T14:49:40.962Z,2.15
2022-12-23T14:52:39.327Z,1.85
2022-12-23T14:58:07.941Z,1.05
2022-12-23T15:00:46.306Z,1.35
2022-12-23T15:03:13.089Z,1.25
2022-12-23T15:05:40.802Z,1.73
2022-12-23T15:08:33.905Z,1.85
2022-12-23T15:11:00.917Z,2.50
2022-12-23T15:13:29.712Z,0.70
2022-12-23T15:16:01.258Z,1.25
2022-12-23T15:18:28.581Z,1.15
2022-12-23T15:21:04.117Z,1.90
2022-12-23T15:23:30.736Z,1.63
2022-12-23T15:25:59.925Z,1.05
2022-12-23T15:28:39.617Z,1.20
2022-12-23T15:31:12.163Z,2.03
2022-12-23T15:36:32.351Z,1.17
2022-12-23T15:39:00.702Z,1.05
2022-12-23T15:41:27.825Z,3.10
2022-12-23T15:43:58.727Z,5.20
2022-12-23T15:46:29.901Z,4.90
2022-12-23T15:48:57.643Z,1.42
2022-12-23T15:52:05.118Z,3.13
2022-12-23T15:54:30.163Z,1.15
2022-12-23T15:56:59.975Z,2.17
2022-12-23T15:59:35.089Z,2.95
2022-12-23T16:05:10.396Z,5.40
2022-12-23T16:07:40.642Z,1.13
2022-12-23T16:10:21.507Z,2.70
2022-12-23T16:12:50.683Z,2.53
2022-12-23T16:15:32.752Z,2.17
2022-12-23T16:18:34.488Z,1.95
2022-12-23T16:21:04.239Z,2.97
2022-12-23T16:23:33.513Z,3.15
2022-12-23T16:26:02.519Z,1.08
2022-12-23T16:28:42.440Z,3.70
2022-12-23T16:31:11.001Z,3.28
2022-12-23T16:33:51.054Z,4.32
2022-12-23T16:36:21.945Z,2.05
2022-12-23T16:38:50.338Z,3.60
2022-12-23T16:41:17.214Z,2.42
2022-12-23T16:43:51.483Z,3.25
2022-12-23T16:46:21.185Z,2.40
2022-12-23T16:48:59.961Z,5.72
2022-12-23T16:51:28.581Z,2.13
2022-12-23T16:53:57.265Z,6.47
2022-12-23T16:56:28.405Z,3.42
2022-12-23T16:58:55.038Z,3.83
2022-12-23T17:01:32.307Z,4.60
2022-12-23T17:03:59.363Z,2.38
2022-12-23T17:06:26.573Z,3.63
2022-12-23T17:08:53.871Z,6.28
2022-12-23T17:11:37.861Z,4.13
2022-12-23T17:14:11.824Z,5.00
2022-12-23T17:16:42.484Z,9.48
2022-12-23T17:19:09.252Z,6.55
2022-12-23T17:21:39.001Z,9.77
2022-12-23T17:24:05.546Z,5.13
2022-12-23T17:26:32.630Z,6.72
2022-12-23T17:28:59.356Z,7.60
2022-12-23T17:31:27.204Z,11.20
2022-12-23T17:33:54.774Z,14.75
2022-12-23T17:36:23.187Z,3.38
2022-12-23T17:38:50.094Z,7.53
2022-12-23T17:41:38.614Z,5.07
2022-12-23T17:44:06.826Z,6.38
2022-12-23T17:46:33.648Z,6.35
2022-12-23T17:49:00.308Z,4.35
2022-12-23T17:51:27.532Z,2.55
2022-12-23T17:53:57.933Z,5.00
2022-12-23T17:56:26.567Z,7.70
2022-12-23T17:58:53.267Z,4.45
2022-12-23T18:01:31.745Z,3.72
2022-12-23T18:03:59.818Z,4.90
2022-12-23T18:06:28.301Z,6.47
2022-12-23T18:08:57.452Z,6.05
2022-12-23T18:11:33.808Z,2.15
2022-12-23T18:14:01.466Z,9.73
2022-12-23T18:16:28.452Z,5.18
2022-12-23T18:18:55.252Z,7.03
2022-12-23T18:21:27.114Z,5.60
2022-12-23T18:23:55.403Z,5.20
2022-12-23T18:26:22.449Z,6.13
2022-12-23T18:28:50.388Z,5.43
2022-12-23T18:31:23.906Z,9.43
2022-12-23T18:33:51.382Z,4.57
2022-12-23T18:36:27.343Z,6.03
2022-12-23T18:38:54.821Z,4.38
2022-12-23T18:41:22.391Z,6.90
2022-12-23T18:43:49.533Z,9.00
2022-12-23T18:46:16.965Z,8.68
2022-12-23T18:48:43.920Z,9.52
2022-12-23T18:51:17.330Z,5.68
2022-12-23T18:53:44.409Z,9.35
2022-12-23T18:56:15.894Z,12.38
2022-12-23T18:58:43.246Z,8.80
2022-12-23T19:01:15.417Z,8.95
2022-12-23T19:03:43.078Z,15.57
2022-12-23T19:06:13.888Z,14.85
2022-12-23T19:08:41.994Z,14.15
2022-12-23T19:11:14.544Z,8.98
2022-12-23T19:13:41.532Z,14.00
2022-12-23T19:16:11.626Z,15.48
2022-12-23T19:18:38.795Z,13.67
2022-12-23T19:21:05.774Z,13.07
2022-12-23T19:23:33.100Z,12.57
2022-12-23T19:25:59.856Z,20.95
2022-12-23T19:28:27.163Z,21.98
2022-12-23T19:30:53.773Z,11.38
2022-12-23T19:33:20.664Z,11.10
2022-12-23T19:35:47.433Z,14.93
2022-12-23T19:38:14.409Z,18.30
2022-12-23T19:40:41.276Z,13.52
2022-12-23T19:43:08.300Z,13.55
2022-12-23T19:45:35.304Z,14.18
2022-12-23T19:48:02.115Z,14.50
2022-12-23T19:50:28.744Z,15.30
2022-12-23T19:52:56.477Z,10.68
2022-12-23T19:55:23.568Z,13.75
2022-12-23T19:57:50.308Z,13.98
2022-12-23T20:00:19.448Z,13.35
2022-12-23T20:02:46.257Z,12.05
2022-12-23T20:05:12.986Z,20.00
2022-12-23T20:07:39.930Z,9.88
2022-12-23T20:10:07.260Z,10.07
2022-12-23T20:12:33.888Z,10.38
2022-12-23T20:15:00.745Z,12.20
2022-12-23T20:17:27.937Z,13.02
2022-12-23T20:19:54.767Z,12.38
2022-12-23T20:22:21.891Z,9.30
2022-12-23T20:24:49.127Z,13.13
2022-12-23T20:27:16.616Z,10.55
2022-12-23T20:29:44.193Z,12.20
2022-12-23T20:32:10.814Z,16.98
2022-12-23T20:34:39.910Z,12.05
2022-12-23T20:37:07.539Z,15.35
2022-12-23T20:39:34.518Z,12.57
2022-12-23T20:42:01.183Z,11.05
2022-12-23T20:44:37.346Z,9.15
2022-12-23T20:47:07.999Z,18.10
2022-12-23T20:49:34.871Z,14.10
2022-12-23T20:52:01.784Z,9.77
2022-12-23T20:54:33.180Z,13.40
2022-12-23T20:57:04.039Z,14.45
2022-12-23T20:59:30.980Z,14.43
2022-12-23T21:01:59.312Z,10.43
2022-12-23T21:04:26.745Z,7.38
2022-12-23T21:06:53.418Z,7.30
2022-12-23T21:09:20.282Z,9.80
2022-12-23T21:11:48.117Z,12.45
2022-12-23T21:14:16.058Z,13.43
2022-12-23T21:16:42.901Z,10.77
2022-12-23T21:19:14.824Z,12.73
2022-12-23T21:21:41.705Z,10.57
2022-12-23T21:24:09.869Z,18.95
2022-12-23T21:26:36.584Z,10.25
2022-12-23T21:29:05.834Z,7.18
2022-12-23T21:31:34.785Z,9.23
2022-12-23T21:34:02.118Z,10.15
2022-12-23T21:36:31.922Z,8.23
2022-12-23T21:38:59.323Z,15.73
2022-12-23T21:41:35.793Z,15.23
2022-12-23T21:44:02.542Z,5.35
2022-12-23T21:46:29.543Z,8.75
2022-12-23T21:48:57.887Z,9.90
2022-12-23T21:51:36.936Z,10.75
2022-12-23T21:54:06.031Z,7.53
2022-12-23T21:56:32.822Z,14.57
2022-12-23T21:59:01.905Z,12.52
2022-12-23T22:01:29.571Z,9.45
2022-12-23T22:03:57.201Z,6.60
2022-12-23T22:06:33.303Z,9.18
2022-12-23T22:09:00.173Z,10.70
2022-12-23T22:11:29.604Z,13.18
2022-12-23T22:13:58.606Z,11.57
2022-12-23T22:16:27.679Z,11.23
2022-12-23T22:18:55.112Z,10.70
2022-12-23T22:21:24.192Z,11.23
2022-12-23T22:23:52.005Z,9.13
2022-12-23T22:26:25.508Z,6.07
2022-12-23T22:28:55.215Z,11.15
2022-12-23T22:31:37.893Z,15.73
2022-12-23T22:34:05.920Z,10.07
2022-12-23T22:36:33.275Z,7.97
2022-12-23T22:39:01.384Z,8.55
2022-12-23T22:41:29.419Z,19.88
2022-12-23T22:43:57.364Z,6.93
2022-12-23T22:46:24.744Z,7.35
2022-12-23T22:48:52.677Z,15.25
2022-12-23T22:51:25.849Z,12.52
2022-12-23T22:53:52.933Z,11.38
2022-12-23T22:56:21.182Z,12.02
2022-12-23T22:58:48.951Z,14.45
2022-12-23T23:01:31.145Z,13.15
2022-12-23T23:04:00.651Z,7.15
2022-12-23T23:06:32.839Z,13.90
2022-12-23T23:08:59.827Z,16.27
2022-12-23T23:11:28.341Z,9.85
2022-12-23T23:13:55.897Z,7.18
2022-12-23T23:16:22.995Z,16.45
2022-12-23T23:18:50.250Z,11.48
2022-12-23T23:21:17.700Z,9.55
2022-12-23T23:23:44.263Z,10.63
2022-12-23T23:26:11.119Z,10.07
2022-12-23T23:28:39.459Z,13.90
2022-12-23T23:31:39.602Z,11.70
2022-12-23T23:33:54.202Z,11.93
2022-12-23T23:36:20.840Z,11.32
2022-12-23T23:38:47.428Z,8.43
2022-12-23T23:41:17.447Z,22.83
2022-12-23T23:43:48.896Z,5.72
2022-12-23T23:46:15.597Z,9.57
2022-12-23T23:48:42.222Z,10.27
2022-12-23T23:51:08.800Z,13.50
2022-12-23T23:53:35.417Z,12.32
2022-12-23T23:56:06.571Z,8.52
